sensor_id;sensor_type;location;lat;lon;timestamp;temperature;humidity
47174;DHT22;36730;49.036;9.094;2023-09-07T00:01:46;26.10;65.80
47174;DHT22;36730;49.036;9.094;2023-09-07T00:07:15;26.10;65.70
47174;DHT22;36730;49.036;9.094;2023-09-07T00:09:40;26.10;65.60
47174;DHT22;36730;49.036;9.094;2023-09-07T00:12:06;26.10;65.60
47174;DHT22;36730;49.036;9.094;2023-09-07T00:14:31;26.00;65.70
47174;DHT22;36730;49.036;9.094;2023-09-07T00:16:57;26.00;65.70
47174;DHT22;36730;49.036;9.094;2023-09-07T00:19:22;26.00;65.60
47174;DHT22;36730;49.036;9.094;2023-09-07T00:21:48;26.00;66.10
47174;DHT22;36730;49.036;9.094;2023-09-07T00:24:13;26.00;65.90
47174;DHT22;36730;49.036;9.094;2023-09-07T00:26:41;26.00;65.60
47174;DHT22;36730;49.036;9.094;2023-09-07T00:29:06;26.00;65.70
47174;DHT22;36730;49.036;9.094;2023-09-07T00:31:32;26.00;65.70
47174;DHT22;36730;49.036;9.094;2023-09-07T00:33:58;26.00;65.70
47174;DHT22;36730;49.036;9.094;2023-09-07T00:36:23;26.00;65.50
47174;DHT22;36730;49.036;9.094;2023-09-07T00:38:49;26.00;65.40
47174;DHT22;36730;49.036;9.094;2023-09-07T00:41:14;26.00;65.20
47174;DHT22;36730;49.036;9.094;2023-09-07T00:43:39;25.90;65.30
47174;DHT22;36730;49.036;9.094;2023-09-07T00:46:06;25.90;65.30
47174;DHT22;36730;49.036;9.094;2023-09-07T00:48:31;26.00;65.20
47174;DHT22;36730;49.036;9.094;2023-09-07T00:50:57;25.90;65.10
47174;DHT22;36730;49.036;9.094;2023-09-07T00:53:22;25.90;65.30
47174;DHT22;36730;49.036;9.094;2023-09-07T00:55:50;25.90;65.40
47174;DHT22;36730;49.036;9.094;2023-09-07T00:58:15;25.90;65.10
47174;DHT22;36730;49.036;9.094;2023-09-07T01:00:41;25.90;65.20
47174;DHT22;36730;49.036;9.094;2023-09-07T01:03:06;25.90;65.20
47174;DHT22;36730;49.036;9.094;2023-09-07T01:05:34;25.80;65.20
47174;DHT22;36730;49.036;9.094;2023-09-07T01:08:08;25.80;65.20
47174;DHT22;36730;49.036;9.094;2023-09-07T01:10:35;25.80;65.20
47174;DHT22;36730;49.036;9.094;2023-09-07T01:13:00;25.80;65.20
47174;DHT22;36730;49.036;9.094;2023-09-07T01:15:26;25.80;65.20
47174;DHT22;36730;49.036;9.094;2023-09-07T01:17:51;25.80;65.20
47174;DHT22;36730;49.036;9.094;2023-09-07T01:20:17;25.80;65.10
47174;DHT22;36730;49.036;9.094;2023-09-07T01:22:43;25.80;65.00
47174;DHT22;36730;49.036;9.094;2023-09-07T01:25:09;25.70;65.00
47174;DHT22;36730;49.036;9.094;2023-09-07T01:27:35;25.80;64.90
47174;DHT22;36730;49.036;9.094;2023-09-07T01:30:00;25.70;65.00
47174;DHT22;36730;49.036;9.094;2023-09-07T01:32:27;25.80;64.90
47174;DHT22;36730;49.036;9.094;2023-09-07T01:34:57;25.70;65.00
47174;DHT22;36730;49.036;9.094;2023-09-07T01:37:22;25.70;65.00
47174;DHT22;36730;49.036;9.094;2023-09-07T01:39:48;25.70;65.10
47174;DHT22;36730;49.036;9.094;2023-09-07T01:42:14;25.70;64.90
47174;DHT22;36730;49.036;9.094;2023-09-07T01:44:40;25.70;64.80
47174;DHT22;36730;49.036;9.094;2023-09-07T01:47:05;25.70;64.90
47174;DHT22;36730;49.036;9.094;2023-09-07T01:49:31;25.70;64.90
47174;DHT22;36730;49.036;9.094;2023-09-07T01:51:56;25.60;64.90
47174;DHT22;36730;49.036;9.094;2023-09-07T01:54:21;25.60;64.90
47174;DHT22;36730;49.036;9.094;2023-09-07T01:56:47;25.60;64.90
47174;DHT22;36730;49.036;9.094;2023-09-07T01:59:12;25.60;64.90
47174;DHT22;36730;49.036;9.094;2023-09-07T02:01:38;25.60;65.00
47174;DHT22;36730;49.036;9.094;2023-09-07T02:04:04;25.60;65.00
47174;DHT22;36730;49.036;9.094;2023-09-07T02:06:29;25.50;65.00
47174;DHT22;36730;49.036;9.094;2023-09-07T02:08:55;25.50;65.00
47174;DHT22;36730;49.036;9.094;2023-09-07T02:11:20;25.50;64.90
47174;DHT22;36730;49.036;9.094;2023-09-07T02:13:46;25.50;65.40
47174;DHT22;36730;49.036;9.094;2023-09-07T02:16:12;25.50;65.20
47174;DHT22;36730;49.036;9.094;2023-09-07T02:18:38;25.40;65.00
47174;DHT22;36730;49.036;9.094;2023-09-07T02:21:08;25.50;64.90
47174;DHT22;36730;49.036;9.094;2023-09-07T02:23:34;25.50;64.80
47174;DHT22;36730;49.036;9.094;2023-09-07T02:26:01;25.50;64.70
47174;DHT22;36730;49.036;9.094;2023-09-07T02:28:27;25.50;64.70
47174;DHT22;36730;49.036;9.094;2023-09-07T02:30:52;25.40;64.80
47174;DHT22;36730;49.036;9.094;2023-09-07T02:33:18;25.40;64.90
47174;DHT22;36730;49.036;9.094;2023-09-07T02:35:43;25.40;64.90
47174;DHT22;36730;49.036;9.094;2023-09-07T02:38:09;25.40;65.00
47174;DHT22;36730;49.036;9.094;2023-09-07T02:40:44;25.40;64.90
47174;DHT22;36730;49.036;9.094;2023-09-07T02:43:10;25.40;64.80
47174;DHT22;36730;49.036;9.094;2023-09-07T02:45:36;25.40;64.80
47174;DHT22;36730;49.036;9.094;2023-09-07T02:48:02;25.40;64.70
47174;DHT22;36730;49.036;9.094;2023-09-07T02:50:29;25.40;64.60
47174;DHT22;36730;49.036;9.094;2023-09-07T02:52:55;25.40;64.90
47174;DHT22;36730;49.036;9.094;2023-09-07T02:55:20;25.30;64.90
47174;DHT22;36730;49.036;9.094;2023-09-07T02:57:46;25.20;64.90
47174;DHT22;36730;49.036;9.094;2023-09-07T03:00:11;25.20;65.00
47174;DHT22;36730;49.036;9.094;2023-09-07T03:02:37;25.30;64.80
47174;DHT22;36730;49.036;9.094;2023-09-07T03:05:02;25.10;64.10
47174;DHT22;36730;49.036;9.094;2023-09-07T03:07:33;25.10;63.70
47174;DHT22;36730;49.036;9.094;2023-09-07T03:09:58;24.90;64.20
47174;DHT22;36730;49.036;9.094;2023-09-07T03:12:24;24.80;63.60
47174;DHT22;36730;49.036;9.094;2023-09-07T03:14:49;24.70;64.10
47174;DHT22;36730;49.036;9.094;2023-09-07T03:17:16;24.60;64.40
47174;DHT22;36730;49.036;9.094;2023-09-07T03:19:41;24.50;64.80
47174;DHT22;36730;49.036;9.094;2023-09-07T03:22:07;24.40;64.80
47174;DHT22;36730;49.036;9.094;2023-09-07T03:24:33;24.30;65.00
47174;DHT22;36730;49.036;9.094;2023-09-07T03:26:59;24.20;65.60
47174;DHT22;36730;49.036;9.094;2023-09-07T03:29:24;24.10;66.10
47174;DHT22;36730;49.036;9.094;2023-09-07T03:31:50;24.10;66.20
47174;DHT22;36730;49.036;9.094;2023-09-07T03:34:15;24.00;66.40
47174;DHT22;36730;49.036;9.094;2023-09-07T03:36:41;23.90;66.80
47174;DHT22;36730;49.036;9.094;2023-09-07T03:39:06;23.80;66.70
47174;DHT22;36730;49.036;9.094;2023-09-07T03:41:33;23.80;66.90
47174;DHT22;36730;49.036;9.094;2023-09-07T03:43:59;23.70;66.90
47174;DHT22;36730;49.036;9.094;2023-09-07T03:46:25;23.60;66.90
47174;DHT22;36730;49.036;9.094;2023-09-07T03:48:51;23.60;67.30
47174;DHT22;36730;49.036;9.094;2023-09-07T03:51:16;23.50;67.70
47174;DHT22;36730;49.036;9.094;2023-09-07T03:53:42;23.40;68.10
47174;DHT22;36730;49.036;9.094;2023-09-07T03:56:07;23.30;68.00
47174;DHT22;36730;49.036;9.094;2023-09-07T03:58:33;23.30;68.30
47174;DHT22;36730;49.036;9.094;2023-09-07T04:00:59;23.20;68.70
47174;DHT22;36730;49.036;9.094;2023-09-07T04:03:25;23.20;69.00
47174;DHT22;36730;49.036;9.094;2023-09-07T04:05:50;23.20;69.40
47174;DHT22;36730;49.036;9.094;2023-09-07T04:08:16;23.10;69.40
47174;DHT22;36730;49.036;9.094;2023-09-07T04:10:41;23.00;69.50
47174;DHT22;36730;49.036;9.094;2023-09-07T04:13:07;23.00;69.50
47174;DHT22;36730;49.036;9.094;2023-09-07T04:15:42;22.90;69.20
47174;DHT22;36730;49.036;9.094;2023-09-07T04:18:08;22.90;69.60
47174;DHT22;36730;49.036;9.094;2023-09-07T04:20:33;22.70;69.80
47174;DHT22;36730;49.036;9.094;2023-09-07T04:22:59;22.70;70.20
47174;DHT22;36730;49.036;9.094;2023-09-07T04:25:25;22.60;70.40
47174;DHT22;36730;49.036;9.094;2023-09-07T04:27:51;22.60;70.30
47174;DHT22;36730;49.036;9.094;2023-09-07T04:30:16;22.60;70.30
47174;DHT22;36730;49.036;9.094;2023-09-07T04:32:42;22.60;70.40
47174;DHT22;36730;49.036;9.094;2023-09-07T04:35:07;22.60;70.50
47174;DHT22;36730;49.036;9.094;2023-09-07T04:37:33;22.50;70.40
47174;DHT22;36730;49.036;9.094;2023-09-07T04:39:58;22.40;70.60
47174;DHT22;36730;49.036;9.094;2023-09-07T04:42:24;22.40;70.80
47174;DHT22;36730;49.036;9.094;2023-09-07T04:44:49;22.40;70.70
47174;DHT22;36730;49.036;9.094;2023-09-07T04:47:15;22.30;70.70
47174;DHT22;36730;49.036;9.094;2023-09-07T04:49:48;22.30;71.10
47174;DHT22;36730;49.036;9.094;2023-09-07T04:52:14;22.30;71.40
47174;DHT22;36730;49.036;9.094;2023-09-07T04:54:39;22.10;71.90
47174;DHT22;36730;49.036;9.094;2023-09-07T04:57:04;22.10;72.70
47174;DHT22;36730;49.036;9.094;2023-09-07T04:59:30;22.10;73.00
47174;DHT22;36730;49.036;9.094;2023-09-07T05:01:58;22.10;73.10
47174;DHT22;36730;49.036;9.094;2023-09-07T05:04:24;22.10;73.00
47174;DHT22;36730;49.036;9.094;2023-09-07T05:06:49;22.00;73.10
47174;DHT22;36730;49.036;9.094;2023-09-07T05:09:15;22.00;72.60
47174;DHT22;36730;49.036;9.094;2023-09-07T05:11:40;22.00;72.90
47174;DHT22;36730;49.036;9.094;2023-09-07T05:14:06;21.90;73.40
47174;DHT22;36730;49.036;9.094;2023-09-07T05:16:31;21.90;73.70
47174;DHT22;36730;49.036;9.094;2023-09-07T05:18:57;21.90;73.60
47174;DHT22;36730;49.036;9.094;2023-09-07T05:21:22;21.90;73.90
47174;DHT22;36730;49.036;9.094;2023-09-07T05:23:48;21.90;73.80
47174;DHT22;36730;49.036;9.094;2023-09-07T05:26:13;21.90;74.60
47174;DHT22;36730;49.036;9.094;2023-09-07T05:28:39;21.80;74.50
47174;DHT22;36730;49.036;9.094;2023-09-07T05:31:05;21.80;75.10
47174;DHT22;36730;49.036;9.094;2023-09-07T05:33:31;21.80;74.30
47174;DHT22;36730;49.036;9.094;2023-09-07T05:35:56;21.80;74.70
47174;DHT22;36730;49.036;9.094;2023-09-07T05:38:22;21.80;74.90
47174;DHT22;36730;49.036;9.094;2023-09-07T05:40:47;21.80;75.40
47174;DHT22;36730;49.036;9.094;2023-09-07T05:43:15;21.70;75.60
47174;DHT22;36730;49.036;9.094;2023-09-07T05:45:41;21.70;76.70
47174;DHT22;36730;49.036;9.094;2023-09-07T05:48:07;21.70;77.00
47174;DHT22;36730;49.036;9.094;2023-09-07T05:50:33;21.70;78.00
47174;DHT22;36730;49.036;9.094;2023-09-07T05:52:59;21.70;78.80
47174;DHT22;36730;49.036;9.094;2023-09-07T05:55:24;21.70;79.80
47174;DHT22;36730;49.036;9.094;2023-09-07T05:57:50;21.70;80.80
47174;DHT22;36730;49.036;9.094;2023-09-07T06:00:15;21.60;81.70
47174;DHT22;36730;49.036;9.094;2023-09-07T06:02:42;21.70;82.20
47174;DHT22;36730;49.036;9.094;2023-09-07T06:05:08;21.60;82.80
47174;DHT22;36730;49.036;9.094;2023-09-07T06:07:33;21.60;83.10
47174;DHT22;36730;49.036;9.094;2023-09-07T06:09:59;21.70;83.30
47174;DHT22;36730;49.036;9.094;2023-09-07T06:12:25;21.70;84.00
47174;DHT22;36730;49.036;9.094;2023-09-07T06:14:50;21.70;84.30
47174;DHT22;36730;49.036;9.094;2023-09-07T06:17:16;21.60;84.70
47174;DHT22;36730;49.036;9.094;2023-09-07T06:19:41;21.70;85.00
47174;DHT22;36730;49.036;9.094;2023-09-07T06:22:06;21.60;84.70
47174;DHT22;36730;49.036;9.094;2023-09-07T06:24:32;21.70;84.80
47174;DHT22;36730;49.036;9.094;2023-09-07T06:26:57;21.70;84.60
47174;DHT22;36730;49.036;9.094;2023-09-07T06:29:23;21.80;84.90
47174;DHT22;36730;49.036;9.094;2023-09-07T06:31:48;21.80;84.30
47174;DHT22;36730;49.036;9.094;2023-09-07T06:34:15;21.90;84.30
47174;DHT22;36730;49.036;9.094;2023-09-07T06:36:41;21.90;84.70
47174;DHT22;36730;49.036;9.094;2023-09-07T06:39:06;22.00;84.10
47174;DHT22;36730;49.036;9.094;2023-09-07T06:41:31;22.00;84.00
47174;DHT22;36730;49.036;9.094;2023-09-07T06:43:57;22.10;83.90
47174;DHT22;36730;49.036;9.094;2023-09-07T06:46:22;22.10;83.80
47174;DHT22;36730;49.036;9.094;2023-09-07T06:48:48;22.20;83.60
47174;DHT22;36730;49.036;9.094;2023-09-07T06:51:13;22.20;83.00
47174;DHT22;36730;49.036;9.094;2023-09-07T06:53:39;22.40;83.40
47174;DHT22;36730;49.036;9.094;2023-09-07T06:56:04;22.40;82.30
47174;DHT22;36730;49.036;9.094;2023-09-07T06:58:31;22.50;82.90
47174;DHT22;36730;49.036;9.094;2023-09-07T07:00:59;22.50;83.20
47174;DHT22;36730;49.036;9.094;2023-09-07T07:03:26;22.50;82.50
47174;DHT22;36730;49.036;9.094;2023-09-07T07:05:51;22.60;82.40
47174;DHT22;36730;49.036;9.094;2023-09-07T07:08:17;22.70;81.80
47174;DHT22;36730;49.036;9.094;2023-09-07T07:10:42;22.70;82.00
47174;DHT22;36730;49.036;9.094;2023-09-07T07:13:08;22.70;81.60
47174;DHT22;36730;49.036;9.094;2023-09-07T07:15:34;22.80;81.30
47174;DHT22;36730;49.036;9.094;2023-09-07T07:18:01;22.80;81.40
47174;DHT22;36730;49.036;9.094;2023-09-07T07:20:26;22.90;81.00
47174;DHT22;36730;49.036;9.094;2023-09-07T07:22:52;22.90;81.40
47174;DHT22;36730;49.036;9.094;2023-09-07T07:25:17;22.90;80.80
47174;DHT22;36730;49.036;9.094;2023-09-07T07:27:43;22.90;81.90
47174;DHT22;36730;49.036;9.094;2023-09-07T07:30:08;22.90;82.10
47174;DHT22;36730;49.036;9.094;2023-09-07T07:32:34;23.00;82.10
47174;DHT22;36730;49.036;9.094;2023-09-07T07:34:59;23.10;82.40
47174;DHT22;36730;49.036;9.094;2023-09-07T07:37:25;23.20;81.70
47174;DHT22;36730;49.036;9.094;2023-09-07T07:39:51;23.20;81.00
47174;DHT22;36730;49.036;9.094;2023-09-07T07:42:16;23.30;80.70
47174;DHT22;36730;49.036;9.094;2023-09-07T07:44:43;23.30;80.10
47174;DHT22;36730;49.036;9.094;2023-09-07T07:47:09;23.30;80.80
47174;DHT22;36730;49.036;9.094;2023-09-07T07:49:34;23.40;80.50
47174;DHT22;36730;49.036;9.094;2023-09-07T07:52:01;23.50;79.90
47174;DHT22;36730;49.036;9.094;2023-09-07T07:54:26;23.50;79.80
47174;DHT22;36730;49.036;9.094;2023-09-07T07:56:53;23.50;79.70
47174;DHT22;36730;49.036;9.094;2023-09-07T07:59:19;23.50;80.40
47174;DHT22;36730;49.036;9.094;2023-09-07T08:01:44;23.60;79.80
47174;DHT22;36730;49.036;9.094;2023-09-07T08:04:10;23.60;78.70
47174;DHT22;36730;49.036;9.094;2023-09-07T08:06:36;23.60;78.80
47174;DHT22;36730;49.036;9.094;2023-09-07T08:09:02;23.60;78.50
47174;DHT22;36730;49.036;9.094;2023-09-07T08:11:28;23.70;78.80
47174;DHT22;36730;49.036;9.094;2023-09-07T08:13:53;23.80;78.60
47174;DHT22;36730;49.036;9.094;2023-09-07T08:16:19;23.80;78.00
47174;DHT22;36730;49.036;9.094;2023-09-07T08:18:44;23.80;77.90
47174;DHT22;36730;49.036;9.094;2023-09-07T08:21:10;23.90;78.00
47174;DHT22;36730;49.036;9.094;2023-09-07T08:23:35;24.00;78.30
47174;DHT22;36730;49.036;9.094;2023-09-07T08:26:01;24.00;77.80
47174;DHT22;36730;49.036;9.094;2023-09-07T08:28:28;24.00;77.80
47174;DHT22;36730;49.036;9.094;2023-09-07T08:30:54;24.10;77.10
47174;DHT22;36730;49.036;9.094;2023-09-07T08:33:22;24.20;77.20
47174;DHT22;36730;49.036;9.094;2023-09-07T08:35:55;24.20;77.10
47174;DHT22;36730;49.036;9.094;2023-09-07T08:38:21;24.20;76.90
47174;DHT22;36730;49.036;9.094;2023-09-07T08:40:50;24.30;76.80
47174;DHT22;36730;49.036;9.094;2023-09-07T08:43:16;24.40;76.70
47174;DHT22;36730;49.036;9.094;2023-09-07T08:45:51;24.40;76.50
47174;DHT22;36730;49.036;9.094;2023-09-07T08:48:25;24.40;76.20
47174;DHT22;36730;49.036;9.094;2023-09-07T08:50:50;24.50;75.90
47174;DHT22;36730;49.036;9.094;2023-09-07T08:53:18;24.60;75.60
47174;DHT22;36730;49.036;9.094;2023-09-07T08:55:45;24.60;75.60
47174;DHT22;36730;49.036;9.094;2023-09-07T08:58:11;24.60;74.80
47174;DHT22;36730;49.036;9.094;2023-09-07T09:00:36;24.70;75.20
47174;DHT22;36730;49.036;9.094;2023-09-07T09:03:02;24.80;74.60
47174;DHT22;36730;49.036;9.094;2023-09-07T09:05:28;24.80;74.70
47174;DHT22;36730;49.036;9.094;2023-09-07T09:08:04;24.80;74.60
47174;DHT22;36730;49.036;9.094;2023-09-07T09:10:30;24.80;75.20
47174;DHT22;36730;49.036;9.094;2023-09-07T09:12:55;24.90;74.30
47174;DHT22;36730;49.036;9.094;2023-09-07T09:15:22;25.00;73.90
47174;DHT22;36730;49.036;9.094;2023-09-07T09:17:47;25.00;73.70
47174;DHT22;36730;49.036;9.094;2023-09-07T09:20:19;25.10;73.50
47174;DHT22;36730;49.036;9.094;2023-09-07T09:22:45;25.10;73.60
47174;DHT22;36730;49.036;9.094;2023-09-07T09:25:10;25.20;73.80
47174;DHT22;36730;49.036;9.094;2023-09-07T09:27:36;25.20;73.30
47174;DHT22;36730;49.036;9.094;2023-09-07T09:30:01;25.30;73.00
47174;DHT22;36730;49.036;9.094;2023-09-07T09:32:26;25.40;73.10
47174;DHT22;36730;49.036;9.094;2023-09-07T09:34:52;25.40;72.70
47174;DHT22;36730;49.036;9.094;2023-09-07T09:37:17;25.40;73.10
47174;DHT22;36730;49.036;9.094;2023-09-07T09:39:47;25.50;72.90
47174;DHT22;36730;49.036;9.094;2023-09-07T09:42:14;25.50;73.30
47174;DHT22;36730;49.036;9.094;2023-09-07T09:44:40;25.60;73.20
47174;DHT22;36730;49.036;9.094;2023-09-07T09:47:05;25.60;73.40
47174;DHT22;36730;49.036;9.094;2023-09-07T09:49:33;25.70;72.60
47174;DHT22;36730;49.036;9.094;2023-09-07T09:51:58;25.70;72.70
47174;DHT22;36730;49.036;9.094;2023-09-07T09:54:25;25.70;72.60
47174;DHT22;36730;49.036;9.094;2023-09-07T09:56:51;25.80;72.60
47174;DHT22;36730;49.036;9.094;2023-09-07T09:59:17;25.80;72.00
47174;DHT22;36730;49.036;9.094;2023-09-07T10:01:43;25.90;71.90
47174;DHT22;36730;49.036;9.094;2023-09-07T10:04:10;25.90;72.20
47174;DHT22;36730;49.036;9.094;2023-09-07T10:06:36;26.00;72.00
47174;DHT22;36730;49.036;9.094;2023-09-07T10:09:04;26.00;72.00
47174;DHT22;36730;49.036;9.094;2023-09-07T10:11:36;26.00;71.80
47174;DHT22;36730;49.036;9.094;2023-09-07T10:14:05;26.10;71.90
47174;DHT22;36730;49.036;9.094;2023-09-07T10:16:47;26.20;72.10
47174;DHT22;36730;49.036;9.094;2023-09-07T10:19:16;26.20;71.70
47174;DHT22;36730;49.036;9.094;2023-09-07T10:21:42;26.20;71.60
47174;DHT22;36730;49.036;9.094;2023-09-07T10:24:07;26.30;71.60
47174;DHT22;36730;49.036;9.094;2023-09-07T10:26:33;26.30;71.40
47174;DHT22;36730;49.036;9.094;2023-09-07T10:28:59;26.40;71.00
47174;DHT22;36730;49.036;9.094;2023-09-07T10:31:26;26.40;71.00
47174;DHT22;36730;49.036;9.094;2023-09-07T10:33:51;26.40;71.20
47174;DHT22;36730;49.036;9.094;2023-09-07T10:36:35;26.50;71.30
47174;DHT22;36730;49.036;9.094;2023-09-07T10:39:02;26.60;72.00
47174;DHT22;36730;49.036;9.094;2023-09-07T10:41:38;26.70;71.10
47174;DHT22;36730;49.036;9.094;2023-09-07T10:44:04;26.70;70.50
47174;DHT22;36730;49.036;9.094;2023-09-07T10:46:31;26.80;70.20
47174;DHT22;36730;49.036;9.094;2023-09-07T10:48:57;26.80;70.30
47174;DHT22;36730;49.036;9.094;2023-09-07T10:51:22;26.90;70.90
47174;DHT22;36730;49.036;9.094;2023-09-07T10:53:48;26.90;70.50
47174;DHT22;36730;49.036;9.094;2023-09-07T10:56:14;26.90;70.50
47174;DHT22;36730;49.036;9.094;2023-09-07T10:58:40;27.00;71.20
47174;DHT22;36730;49.036;9.094;2023-09-07T11:01:07;27.00;70.50
47174;DHT22;36730;49.036;9.094;2023-09-07T11:03:34;27.10;70.00
47174;DHT22;36730;49.036;9.094;2023-09-07T11:08:31;27.20;68.80
47174;DHT22;36730;49.036;9.094;2023-09-07T11:10:58;27.20;68.90
47174;DHT22;36730;49.036;9.094;2023-09-07T11:13:24;27.30;69.50
47174;DHT22;36730;49.036;9.094;2023-09-07T11:15:49;27.30;69.20
47174;DHT22;36730;49.036;9.094;2023-09-07T11:18:21;27.40;69.30
47174;DHT22;36730;49.036;9.094;2023-09-07T11:20:48;27.40;69.00
47174;DHT22;36730;49.036;9.094;2023-09-07T11:23:13;27.50;68.60
47174;DHT22;36730;49.036;9.094;2023-09-07T11:25:39;27.50;68.70
47174;DHT22;36730;49.036;9.094;2023-09-07T11:28:05;27.60;68.40
47174;DHT22;36730;49.036;9.094;2023-09-07T11:30:31;27.70;68.40
47174;DHT22;36730;49.036;9.094;2023-09-07T11:33:15;27.70;68.20
47174;DHT22;36730;49.036;9.094;2023-09-07T11:35:40;27.80;68.00
47174;DHT22;36730;49.036;9.094;2023-09-07T11:38:06;27.90;67.10
47174;DHT22;36730;49.036;9.094;2023-09-07T11:40:35;27.90;67.40
47174;DHT22;36730;49.036;9.094;2023-09-07T11:43:00;28.00;66.90
47174;DHT22;36730;49.036;9.094;2023-09-07T11:45:26;28.10;66.40
47174;DHT22;36730;49.036;9.094;2023-09-07T11:47:52;28.10;66.50
47174;DHT22;36730;49.036;9.094;2023-09-07T11:50:17;28.20;66.80
47174;DHT22;36730;49.036;9.094;2023-09-07T11:52:44;28.20;66.50
47174;DHT22;36730;49.036;9.094;2023-09-07T11:55:09;28.30;66.10
47174;DHT22;36730;49.036;9.094;2023-09-07T11:57:36;28.30;66.50
47174;DHT22;36730;49.036;9.094;2023-09-07T12:00:01;28.40;66.20
47174;DHT22;36730;49.036;9.094;2023-09-07T12:02:27;28.30;65.80
47174;DHT22;36730;49.036;9.094;2023-09-07T12:04:53;28.40;65.40
47174;DHT22;36730;49.036;9.094;2023-09-07T12:07:19;28.40;65.60
47174;DHT22;36730;49.036;9.094;2023-09-07T12:09:45;28.50;65.50
47174;DHT22;36730;49.036;9.094;2023-09-07T12:12:10;28.50;65.30
47174;DHT22;36730;49.036;9.094;2023-09-07T12:14:36;28.60;66.10
47174;DHT22;36730;49.036;9.094;2023-09-07T12:17:01;28.60;65.10
47174;DHT22;36730;49.036;9.094;2023-09-07T12:19:27;28.70;65.00
47174;DHT22;36730;49.036;9.094;2023-09-07T12:21:52;28.70;64.70
47174;DHT22;36730;49.036;9.094;2023-09-07T12:24:18;28.80;64.50
47174;DHT22;36730;49.036;9.094;2023-09-07T12:26:43;28.80;64.00
47174;DHT22;36730;49.036;9.094;2023-09-07T12:29:09;28.80;64.30
47174;DHT22;36730;49.036;9.094;2023-09-07T12:31:34;28.80;64.10
47174;DHT22;36730;49.036;9.094;2023-09-07T12:33:59;28.90;64.50
47174;DHT22;36730;49.036;9.094;2023-09-07T12:36:25;28.90;64.80
47174;DHT22;36730;49.036;9.094;2023-09-07T12:38:55;28.90;64.30
47174;DHT22;36730;49.036;9.094;2023-09-07T12:41:21;29.00;63.70
47174;DHT22;36730;49.036;9.094;2023-09-07T12:43:47;29.00;63.50
47174;DHT22;36730;49.036;9.094;2023-09-07T12:46:12;29.10;62.90
47174;DHT22;36730;49.036;9.094;2023-09-07T12:48:38;29.10;62.90
47174;DHT22;36730;49.036;9.094;2023-09-07T12:51:04;29.10;62.80
47174;DHT22;36730;49.036;9.094;2023-09-07T12:53:29;29.20;63.60
47174;DHT22;36730;49.036;9.094;2023-09-07T12:55:55;29.20;63.00
47174;DHT22;36730;49.036;9.094;2023-09-07T12:58:21;29.30;63.30
47174;DHT22;36730;49.036;9.094;2023-09-07T13:00:46;29.30;63.00
47174;DHT22;36730;49.036;9.094;2023-09-07T13:03:14;29.40;62.40
47174;DHT22;36730;49.036;9.094;2023-09-07T13:05:39;29.40;62.30
47174;DHT22;36730;49.036;9.094;2023-09-07T13:08:05;29.50;62.90
47174;DHT22;36730;49.036;9.094;2023-09-07T13:10:32;29.50;62.30
47174;DHT22;36730;49.036;9.094;2023-09-07T13:12:57;29.60;61.90
47174;DHT22;36730;49.036;9.094;2023-09-07T13:15:23;29.70;63.30
47174;DHT22;36730;49.036;9.094;2023-09-07T13:17:48;29.70;60.90
47174;DHT22;36730;49.036;9.094;2023-09-07T13:20:14;29.80;60.90
47174;DHT22;36730;49.036;9.094;2023-09-07T13:22:39;29.80;61.30
47174;DHT22;36730;49.036;9.094;2023-09-07T13:25:05;29.80;60.70
47174;DHT22;36730;49.036;9.094;2023-09-07T13:27:30;29.90;60.60
47174;DHT22;36730;49.036;9.094;2023-09-07T13:29:56;30.00;60.20
47174;DHT22;36730;49.036;9.094;2023-09-07T13:32:22;30.00;60.10
47174;DHT22;36730;49.036;9.094;2023-09-07T13:34:48;30.00;60.40
47174;DHT22;36730;49.036;9.094;2023-09-07T13:37:13;30.00;60.10
47174;DHT22;36730;49.036;9.094;2023-09-07T13:39:39;30.00;59.80
47174;DHT22;36730;49.036;9.094;2023-09-07T13:42:04;30.10;61.10
47174;DHT22;36730;49.036;9.094;2023-09-07T13:44:30;30.10;60.40
47174;DHT22;36730;49.036;9.094;2023-09-07T13:46:55;30.10;60.10
47174;DHT22;36730;49.036;9.094;2023-09-07T13:49:21;30.20;60.10
47174;DHT22;36730;49.036;9.094;2023-09-07T13:51:46;30.20;60.00
47174;DHT22;36730;49.036;9.094;2023-09-07T13:54:12;30.30;60.00
47174;DHT22;36730;49.036;9.094;2023-09-07T13:56:37;30.30;60.10
47174;DHT22;36730;49.036;9.094;2023-09-07T13:59:04;30.30;59.60
47174;DHT22;36730;49.036;9.094;2023-09-07T14:01:29;30.40;59.40
47174;DHT22;36730;49.036;9.094;2023-09-07T14:03:55;30.40;59.60
47174;DHT22;36730;49.036;9.094;2023-09-07T14:06:20;30.40;59.60
47174;DHT22;36730;49.036;9.094;2023-09-07T14:08:49;30.50;59.60
47174;DHT22;36730;49.036;9.094;2023-09-07T14:11:16;30.50;59.20
47174;DHT22;36730;49.036;9.094;2023-09-07T14:13:42;30.50;58.90
47174;DHT22;36730;49.036;9.094;2023-09-07T14:16:07;30.60;58.30
47174;DHT22;36730;49.036;9.094;2023-09-07T14:18:36;30.60;59.50
47174;DHT22;36730;49.036;9.094;2023-09-07T14:21:01;30.60;59.50
47174;DHT22;36730;49.036;9.094;2023-09-07T14:23:27;30.60;58.80
47174;DHT22;36730;49.036;9.094;2023-09-07T14:25:53;30.60;58.30
47174;DHT22;36730;49.036;9.094;2023-09-07T14:28:19;30.70;58.80
47174;DHT22;36730;49.036;9.094;2023-09-07T14:30:44;30.60;57.20
47174;DHT22;36730;49.036;9.094;2023-09-07T14:33:10;30.70;57.90
47174;DHT22;36730;49.036;9.094;2023-09-07T14:35:35;30.70;57.20
47174;DHT22;36730;49.036;9.094;2023-09-07T14:38:01;30.70;60.00
47174;DHT22;36730;49.036;9.094;2023-09-07T14:40:26;30.70;60.20
47174;DHT22;36730;49.036;9.094;2023-09-07T14:42:52;30.70;58.10
47174;DHT22;36730;49.036;9.094;2023-09-07T14:45:19;30.60;57.90
47174;DHT22;36730;49.036;9.094;2023-09-07T14:47:44;30.60;57.50
47174;DHT22;36730;49.036;9.094;2023-09-07T14:50:10;30.70;57.70
47174;DHT22;36730;49.036;9.094;2023-09-07T14:52:35;30.70;57.30
47174;DHT22;36730;49.036;9.094;2023-09-07T14:55:06;30.70;57.00
47174;DHT22;36730;49.036;9.094;2023-09-07T14:57:32;30.70;57.30
47174;DHT22;36730;49.036;9.094;2023-09-07T14:59:57;30.70;57.40
47174;DHT22;36730;49.036;9.094;2023-09-07T15:02:23;30.70;56.60
47174;DHT22;36730;49.036;9.094;2023-09-07T15:04:48;30.70;56.90
47174;DHT22;36730;49.036;9.094;2023-09-07T15:07:14;30.70;56.70
47174;DHT22;36730;49.036;9.094;2023-09-07T15:09:39;30.70;55.80
47174;DHT22;36730;49.036;9.094;2023-09-07T15:12:05;30.70;56.50
47174;DHT22;36730;49.036;9.094;2023-09-07T15:14:30;30.70;57.70
47174;DHT22;36730;49.036;9.094;2023-09-07T15:16:56;30.70;57.20
47174;DHT22;36730;49.036;9.094;2023-09-07T15:19:21;30.70;56.90
47174;DHT22;36730;49.036;9.094;2023-09-07T15:21:47;30.70;56.90
47174;DHT22;36730;49.036;9.094;2023-09-07T15:24:12;30.70;56.60
47174;DHT22;36730;49.036;9.094;2023-09-07T15:26:44;30.80;56.90
47174;DHT22;36730;49.036;9.094;2023-09-07T15:29:10;30.80;56.70